createdAt,value
2023-02-12T00:02:25.726Z,39.05
2023-02-12T00:04:52.534Z,39.92
2023-02-12T00:07:19.038Z,42.83
2023-02-12T00:09:45.535Z,35.03
2023-02-12T00:12:12.051Z,40.42
2023-02-12T00:14:38.604Z,40.10
2023-02-12T00:17:05.124Z,34.10
2023-02-12T00:19:31.698Z,40.40
2023-02-12T00:21:58.175Z,38.58
2023-02-12T00:24:25.054Z,35.38
2023-02-12T00:26:51.639Z,33.60
2023-02-12T00:29:18.090Z,38.17
2023-02-12T00:31:44.655Z,46.72
2023-02-12T00:34:11.436Z,41.47
2023-02-12T00:36:37.957Z,39.67
2023-02-12T00:39:04.755Z,38.88
2023-02-12T00:41:32.608Z,36.38
2023-02-12T00:43:59.265Z,37.38
2023-02-12T00:46:25.814Z,39.75
2023-02-12T00:48:52.308Z,38.60
2023-02-12T00:51:18.822Z,45.38
2023-02-12T00:53:45.320Z,40.17
2023-02-12T00:56:11.805Z,38.50
2023-02-12T00:58:38.299Z,42.40
2023-02-12T01:01:04.930Z,43.72
2023-02-12T01:03:31.581Z,37.47
2023-02-12T01:05:58.363Z,33.30
2023-02-12T01:08:25.057Z,34.25
2023-02-12T01:11:03.143Z,43.58
2023-02-12T01:13:32.029Z,35.80
2023-02-12T01:16:03.102Z,34.97
2023-02-12T01:18:29.901Z,43.50
2023-02-12T01:20:56.448Z,38.75
2023-02-12T01:23:22.953Z,36.90
2023-02-12T01:25:49.464Z,41.90
2023-02-12T01:28:15.948Z,40.83
2023-02-12T01:30:42.479Z,39.97
2023-02-12T01:33:09.011Z,36.70
2023-02-12T01:35:37.962Z,41.03
2023-02-12T01:38:04.441Z,38.70
2023-02-12T01:40:30.994Z,44.13
2023-02-12T01:43:01.077Z,36.30
2023-02-12T01:45:36.715Z,37.05
2023-02-12T01:48:03.437Z,37.30
2023-02-12T01:50:30.034Z,35.50
2023-02-12T01:52:58.774Z,38.10
2023-02-12T01:55:25.816Z,42.28
2023-02-12T01:57:52.402Z,37.53
2023-02-12T02:00:24.488Z,38.00
2023-02-12T02:03:00.288Z,39.58
2023-02-12T02:05:33.298Z,35.90
2023-02-12T02:08:00.045Z,38.88
2023-02-12T02:10:26.595Z,34.95
2023-02-12T02:13:11.358Z,34.53
2023-02-12T02:15:41.943Z,36.50
2023-02-12T02:18:24.979Z,39.53
2023-02-12T02:21:09.117Z,35.70
2023-02-12T02:24:04.928Z,36.78
2023-02-12T02:27:18.690Z,37.95
2023-02-12T02:30:14.897Z,31.90
2023-02-12T02:32:55.108Z,39.97
2023-02-12T02:35:32.895Z,36.67
2023-02-12T02:38:20.845Z,47.80
2023-02-12T02:40:55.055Z,40.72
2023-02-12T02:43:30.081Z,40.03
2023-02-12T02:46:05.393Z,42.67
2023-02-12T02:48:44.250Z,40.05
2023-02-12T02:51:20.295Z,41.60
2023-02-12T02:53:56.804Z,40.15
2023-02-12T02:56:25.052Z,43.05
2023-02-12T02:58:57.841Z,39.00
2023-02-12T03:01:27.064Z,42.75
2023-02-12T03:04:06.337Z,38.38
2023-02-12T03:06:40.333Z,38.88
2023-02-12T03:09:17.030Z,41.92
2023-02-12T03:11:43.700Z,40.63
2023-02-12T03:14:23.681Z,39.40
2023-02-12T03:17:05.215Z,40.58
2023-02-12T03:19:43.549Z,36.65
2023-02-12T03:22:14.307Z,42.38
2023-02-12T03:24:53.748Z,38.10
2023-02-12T03:27:27.187Z,46.75
2023-02-12T03:29:53.811Z,41.45
2023-02-12T03:32:50.886Z,38.42
2023-02-12T03:35:32.964Z,37.58
2023-02-12T03:38:17.795Z,34.28
2023-02-12T03:40:56.543Z,40.78
2023-02-12T03:43:28.435Z,40.33
2023-02-12T03:46:03.996Z,34.95
2023-02-12T03:48:41.303Z,42.75
2023-02-12T03:51:25.876Z,41.63
2023-02-12T03:53:52.848Z,38.67
2023-02-12T03:56:25.563Z,33.60
2023-02-12T03:58:52.065Z,34.83
2023-02-12T04:01:18.780Z,39.05
2023-02-12T04:03:45.290Z,34.05
2023-02-12T04:06:27.218Z,37.88
2023-02-12T04:08:56.414Z,34.90
2023-02-12T04:11:37.712Z,34.63
2023-02-12T04:14:22.537Z,34.33
2023-02-12T04:16:57.979Z,37.42
2023-02-12T04:19:43.749Z,38.47
2023-02-12T04:22:48.875Z,37.95
2023-02-12T04:25:53.987Z,32.50
2023-02-12T04:28:34.731Z,34.72
2023-02-12T04:31:29.875Z,36.45
2023-02-12T04:34:09.781Z,37.08
2023-02-12T04:36:45.761Z,35.85
2023-02-12T04:39:19.005Z,33.28
2023-02-12T04:41:45.503Z,31.85
2023-02-12T04:44:23.232Z,31.67
2023-02-12T04:46:50.465Z,32.92
2023-02-12T04:49:18.953Z,30.08
2023-02-12T04:51:46.479Z,35.50
2023-02-12T04:54:14.227Z,33.75
2023-02-12T04:56:40.700Z,39.13
2023-02-12T04:59:07.640Z,37.15
2023-02-12T05:01:35.360Z,41.25
2023-02-12T05:04:02.252Z,33.70
2023-02-12T05:06:30.476Z,39.53
2023-02-12T05:08:57.934Z,33.60
2023-02-12T05:11:24.580Z,39.13
2023-02-12T05:13:53.005Z,36.80
2023-02-12T05:16:21.390Z,38.95
2023-02-12T05:18:48.134Z,32.08
2023-02-12T05:21:15.275Z,37.83
2023-02-12T05:23:41.973Z,35.83
2023-02-12T05:26:15.693Z,38.83
2023-02-12T05:28:42.245Z,35.35
2023-02-12T05:31:11.385Z,35.78
2023-02-12T05:33:37.910Z,38.55
2023-02-12T05:36:10.580Z,37.17
2023-02-12T05:38:37.105Z,28.87
2023-02-12T05:41:08.418Z,39.53
2023-02-12T05:43:35.234Z,35.05
2023-02-12T05:46:04.285Z,33.88
2023-02-12T05:48:31.402Z,35.28
2023-02-12T05:51:11.740Z,35.58
2023-02-12T05:53:39.798Z,37.85
2023-02-12T05:56:09.470Z,39.22
2023-02-12T05:58:36.274Z,33.58
2023-02-12T06:01:02.982Z,36.83
2023-02-12T06:03:29.550Z,37.22
2023-02-12T06:05:56.440Z,38.17
2023-02-12T06:08:23.088Z,37.10
2023-02-12T06:10:49.534Z,37.15
2023-02-12T06:13:16.010Z,35.03
2023-02-12T06:15:42.545Z,36.90
2023-02-12T06:18:09.010Z,32.85
2023-02-12T06:20:35.447Z,37.80
2023-02-12T06:23:01.870Z,41.75
2023-02-12T06:25:28.368Z,37.83
2023-02-12T06:27:54.821Z,47.30
2023-02-12T06:30:21.450Z,44.00
2023-02-12T06:32:50.288Z,38.45
2023-02-12T06:35:16.879Z,34.92
2023-02-12T06:37:43.393Z,38.85
2023-02-12T06:40:10.263Z,36.38
2023-02-12T06:42:36.722Z,40.10
2023-02-12T06:45:03.652Z,34.67
2023-02-12T06:47:30.103Z,38.03
2023-02-12T06:49:56.657Z,36.90
2023-02-12T06:52:23.273Z,36.63
2023-02-12T06:54:49.773Z,37.10
2023-02-12T06:57:16.266Z,35.97
2023-02-12T06:59:42.751Z,39.40
2023-02-12T07:02:11.219Z,35.25
2023-02-12T07:04:39.045Z,39.08
2023-02-12T07:07:06.047Z,36.90
2023-02-12T07:09:32.642Z,43.22
2023-02-12T07:11:59.449Z,36.92
2023-02-12T07:14:28.295Z,37.35
2023-02-12T07:16:57.258Z,34.05
2023-02-12T07:19:24.170Z,33.67
2023-02-12T07:21:50.709Z,34.05
2023-02-12T07:24:18.199Z,38.92
2023-02-12T07:26:44.807Z,38.50
2023-02-12T07:29:11.322Z,40.13
2023-02-12T07:31:37.900Z,36.22
2023-02-12T07:34:04.520Z,36.70
2023-02-12T07:36:32.865Z,37.20
2023-02-12T07:39:00.181Z,41.83
2023-02-12T07:41:29.408Z,37.15
2023-02-12T07:44:07.981Z,36.28
2023-02-12T07:46:37.408Z,40.63
2023-02-12T07:49:05.974Z,39.45
2023-02-12T07:51:36.616Z,42.33
2023-02-12T07:54:04.196Z,37.35
2023-02-12T07:56:35.226Z,36.28
2023-02-12T07:59:04.528Z,39.22
2023-02-12T08:01:37.125Z,34.00
2023-02-12T08:04:09.300Z,32.23
2023-02-12T08:06:38.919Z,38.08
2023-02-12T08:09:08.226Z,37.00
2023-02-12T08:11:35.130Z,36.05
2023-02-12T08:14:01.590Z,39.30
2023-02-12T08:16:29.272Z,40.70
2023-02-12T08:19:07.306Z,34.92
2023-02-12T08:21:41.249Z,36.95
2023-02-12T08:24:07.817Z,39.28
2023-02-12T08:26:36.882Z,38.35
2023-02-12T08:29:15.265Z,37.78
2023-02-12T08:31:44.834Z,42.58
2023-02-12T08:34:23.869Z,33.47
2023-02-12T08:36:54.090Z,33.22
2023-02-12T08:39:21.560Z,41.42
2023-02-12T08:41:48.625Z,39.97
2023-02-12T08:44:16.768Z,35.50
2023-02-12T08:46:46.948Z,40.13
2023-02-12T08:49:16.005Z,32.10
2023-02-12T08:51:45.892Z,38.40
2023-02-12T08:54:15.446Z,36.22
2023-02-12T08:56:42.799Z,36.00
2023-02-12T08:59:10.955Z,34.78
2023-02-12T09:01:38.718Z,35.90
2023-02-12T09:04:05.993Z,40.03
2023-02-12T09:06:34.463Z,41.00
2023-02-12T09:09:02.162Z,39.03
2023-02-12T09:11:32.422Z,36.72
2023-02-12T09:14:02.137Z,31.00
2023-02-12T09:16:30.639Z,34.33
2023-02-12T09:18:57.527Z,34.63
2023-02-12T09:21:24.222Z,36.47
2023-02-12T09:23:50.831Z,30.95
2023-02-12T09:26:23.051Z,30.20
2023-02-12T09:28:50.625Z,28.85
2023-02-12T09:31:26.558Z,29.42
2023-02-12T09:34:04.058Z,30.92
2023-02-12T09:36:31.811Z,31.92
2023-02-12T09:38:59.442Z,34.65
2023-02-12T09:41:48.691Z,36.33
2023-02-12T09:44:22.669Z,32.55
2023-02-12T09:47:00.167Z,33.80
2023-02-12T09:49:39.514Z,29.42
2023-02-12T09:52:13.779Z,29.38
2023-02-12T09:54:40.340Z,29.02
2023-02-12T09:57:17.592Z,28.63
2023-02-12T10:00:10.127Z,28.10
2023-02-12T10:02:39.009Z,28.75
2023-02-12T10:05:14.487Z,27.48
2023-02-12T10:07:43.672Z,24.77
2023-02-12T10:10:31.465Z,23.58
2023-02-12T10:13:04.070Z,22.10
2023-02-12T10:16:07.457Z,24.93
2023-02-12T10:18:51.106Z,22.67
2023-02-12T10:21:20.348Z,25.67
2023-02-12T10:23:52.697Z,23.08
2023-02-12T10:26:25.915Z,24.52
2023-02-12T10:28:53.233Z,21.80
2023-02-12T10:31:30.373Z,21.70
2023-02-12T10:33:57.544Z,22.05
2023-02-12T10:36:42.494Z,19.88
2023-02-12T10:39:14.546Z,20.63
2023-02-12T10:41:49.076Z,20.67
2023-02-12T10:44:15.711Z,21.77
2023-02-12T10:46:42.214Z,23.60
2023-02-12T10:49:14.014Z,18.75
2023-02-12T10:51:55.538Z,22.48
2023-02-12T10:54:32.361Z,19.15
2023-02-12T10:57:04.833Z,22.73
2023-02-12T10:59:31.381Z,17.93
2023-02-12T11:01:57.996Z,18.83
2023-02-12T11:04:27.727Z,19.67
2023-02-12T11:07:03.551Z,19.30
2023-02-12T11:09:45.404Z,17.67
2023-02-12T11:12:21.027Z,20.38
2023-02-12T11:14:54.044Z,16.30
2023-02-12T11:17:29.749Z,14.13
2023-02-12T11:20:24.849Z,15.98
2023-02-12T11:22:55.969Z,16.40
2023-02-12T11:25:25.408Z,15.45
2023-02-12T11:28:18.818Z,19.08
2023-02-12T11:30:55.521Z,17.20
2023-02-12T11:33:25.628Z,16.27
2023-02-12T11:35:56.092Z,20.45
2023-02-12T11:38:35.096Z,17.48
2023-02-12T11:41:37.516Z,15.20
2023-02-12T11:44:13.252Z,17.52
2023-02-12T11:46:40.861Z,17.65
2023-02-12T11:49:09.377Z,19.00
2023-02-12T11:51:37.775Z,17.02
2023-02-12T11:54:07.592Z,19.83
2023-02-12T11:56:43.482Z,18.55
2023-02-12T11:59:21.876Z,18.33
2023-02-12T12:01:51.297Z,18.33
2023-02-12T12:04:22.849Z,14.65
2023-02-12T12:07:00.029Z,17.48
2023-02-12T12:09:49.651Z,17.45
2023-02-12T12:12:31.382Z,19.35
2023-02-12T12:15:33.964Z,17.75
2023-02-12T12:18:31.969Z,14.52
2023-02-12T12:21:08.303Z,19.40
2023-02-12T12:24:11.407Z,17.48
2023-02-12T12:26:41.945Z,15.68
2023-02-12T12:29:40.549Z,15.38
2023-02-12T12:32:10.005Z,13.02
2023-02-12T12:34:36.508Z,15.35
2023-02-12T12:37:18.098Z,12.15
2023-02-12T12:39:59.934Z,14.23
2023-02-12T12:42:28.340Z,14.27
2023-02-12T12:45:16.291Z,12.90
2023-02-12T12:47:54.860Z,14.45
2023-02-12T12:50:46.205Z,12.48
2023-02-12T12:53:22.191Z,13.57
2023-02-12T12:56:07.280Z,14.02
2023-02-12T12:58:52.642Z,16.67
2023-02-12T13:01:44.978Z,15.00
2023-02-12T13:04:47.739Z,15.45
2023-02-12T13:07:58.608Z,16.83
2023-02-12T13:10:48.197Z,14.90
2023-02-12T13:13:29.038Z,13.80
2023-02-12T13:16:04.588Z,15.45
2023-02-12T13:18:31.030Z,15.18
2023-02-12T13:21:20.926Z,14.85
2023-02-12T13:24:10.299Z,15.55
2023-02-12T13:26:50.566Z,14.27
2023-02-12T13:29:23.311Z,14.60
2023-02-12T13:32:02.631Z,13.70
2023-02-12T13:34:32.473Z,14.00
2023-02-12T13:37:04.475Z,12.43
2023-02-12T13:39:41.095Z,12.50
2023-02-12T13:42:07.670Z,13.10
2023-02-12T13:44:43.188Z,11.93
2023-02-12T13:47:30.257Z,13.45
2023-02-12T13:50:05.525Z,12.93
2023-02-12T13:52:49.384Z,10.93
2023-02-12T13:55:31.774Z,10.45
2023-02-12T13:58:32.276Z,10.15
2023-02-12T14:01:14.789Z,13.15
2023-02-12T14:03:41.384Z,10.60
2023-02-12T14:06:09.630Z,11.35
2023-02-12T14:08:40.026Z,10.85
2023-02-12T14:11:13.108Z,11.07
2023-02-12T14:13:52.507Z,12.35
2023-02-12T14:16:40.432Z,10.60
2023-02-12T14:19:44.701Z,12.80
2023-02-12T14:22:34.152Z,13.68
2023-02-12T14:25:21.715Z,10.73
2023-02-12T14:28:06.447Z,12.35
2023-02-12T14:30:35.502Z,13.95
2023-02-12T14:33:08.257Z,16.30
2023-02-12T14:35:46.763Z,13.05
2023-02-12T14:38:46.901Z,17.17
2023-02-12T14:41:37.806Z,14.98
2023-02-12T14:44:30.756Z,15.82
2023-02-12T14:46:58.313Z,13.48
2023-02-12T14:49:33.322Z,14.85
2023-02-12T14:52:15.496Z,13.32
2023-02-12T14:54:54.661Z,14.63
2023-02-12T14:57:29.120Z,13.90
2023-02-12T15:00:16.754Z,14.00
2023-02-12T15:02:50.067Z,13.45
2023-02-12T15:05:26.065Z,12.90
2023-02-12T15:08:00.454Z,16.40
2023-02-12T15:10:35.190Z,13.68
2023-02-12T15:13:13.792Z,14.32
2023-02-12T15:15:50.824Z,13.35
2023-02-12T15:18:48.414Z,14.43
2023-02-12T15:21:31.716Z,13.48
2023-02-12T15:24:01.814Z,13.63
2023-02-12T15:26:32.392Z,14.77
2023-02-12T15:28:59.665Z,16.42
2023-02-12T15:31:29.724Z,17.20
2023-02-12T15:33:58.623Z,20.48
2023-02-12T15:36:28.491Z,19.38
2023-02-12T15:38:58.187Z,17.15
2023-02-12T15:41:24.578Z,18.35
2023-02-12T15:43:51.077Z,18.45
2023-02-12T15:46:18.536Z,19.27
2023-02-12T15:48:45.237Z,17.85
2023-02-12T15:51:14.795Z,14.70
2023-02-12T15:53:42.457Z,17.42
2023-02-12T15:56:18.294Z,16.90
2023-02-12T15:58:49.327Z,18.75
2023-02-12T16:01:19.068Z,19.17
2023-02-12T16:03:50.729Z,13.73
2023-02-12T16:06:18.667Z,17.08
2023-02-12T16:08:52.889Z,16.50
2023-02-12T16:11:22.279Z,16.65
2023-02-12T16:13:55.751Z,15.80
2023-02-12T16:19:05.888Z,18.85
2023-02-12T16:24:01.354Z,17.75
2023-02-12T16:26:28.491Z,25.98
2023-02-12T16:28:57.095Z,17.58
2023-02-12T16:31:26.778Z,29.92
2023-02-12T16:33:59.219Z,24.23
2023-02-12T16:36:25.758Z,23.52
2023-02-12T16:39:06.515Z,23.00
2023-02-12T16:41:52.385Z,20.42
2023-02-12T16:44:27.053Z,24.13
2023-02-12T16:46:56.753Z,18.67
2023-02-12T16:49:26.519Z,19.88
2023-02-12T16:51:53.649Z,15.65
2023-02-12T16:54:34.856Z,17.38
2023-02-12T16:57:02.392Z,13.43
2023-02-12T16:59:29.935Z,15.35
2023-02-12T17:02:09.632Z,14.05
2023-02-12T17:04:36.231Z,19.77
2023-02-12T17:07:02.847Z,27.58
2023-02-12T17:09:32.374Z,19.38
2023-02-12T17:11:58.911Z,22.48
2023-02-12T17:14:25.368Z,21.48
2023-02-12T17:16:51.897Z,46.30
2023-02-12T17:19:18.397Z,26.83
2023-02-12T17:21:49.318Z,28.30
2023-02-12T17:24:22.523Z,21.25
2023-02-12T17:26:53.059Z,52.10
2023-02-12T17:29:21.769Z,52.15
2023-02-12T17:31:49.280Z,24.15
2023-02-12T17:34:16.656Z,28.48
2023-02-12T17:36:43.165Z,28.58
2023-02-12T17:39:12.906Z,27.23
2023-02-12T17:41:40.810Z,24.52
2023-02-12T17:44:08.227Z,23.80
2023-02-12T17:46:34.922Z,21.98
2023-02-12T17:49:01.475Z,22.30
2023-02-12T17:51:28.069Z,20.42
2023-02-12T17:53:54.613Z,20.23
2023-02-12T17:56:23.225Z,20.02
2023-02-12T17:58:49.858Z,21.85
2023-02-12T18:01:19.860Z,22.85
2023-02-12T18:03:46.876Z,24.58
2023-02-12T18:06:16.546Z,22.60
2023-02-12T18:08:43.675Z,21.23
2023-02-12T18:11:11.648Z,22.75
2023-02-12T18:13:38.350Z,27.00
2023-02-12T18:16:09.646Z,25.73
2023-02-12T18:18:37.330Z,27.67
2023-02-12T18:21:13.331Z,25.50
2023-02-12T18:23:40.459Z,26.40
2023-02-12T18:26:12.553Z,30.88
2023-02-12T18:28:39.910Z,25.20
2023-02-12T18:31:07.203Z,30.55
2023-02-12T18:33:33.903Z,27.42
2023-02-12T18:36:09.665Z,26.42
2023-02-12T18:38:38.256Z,25.95
2023-02-12T18:41:10.865Z,26.42
2023-02-12T18:43:37.870Z,30.23
2023-02-12T18:46:08.630Z,26.33
2023-02-12T18:48:36.264Z,35.35
2023-02-12T18:51:07.413Z,32.10
2023-02-12T18:53:34.048Z,33.38
2023-02-12T18:56:04.980Z,37.83
2023-02-12T18:58:31.510Z,36.50
2023-02-12T19:00:58.275Z,33.53
2023-02-12T19:03:25.742Z,33.60
2023-02-12T19:05:52.979Z,35.83
2023-02-12T19:08:19.644Z,35.90
2023-02-12T19:10:49.440Z,34.50
2023-02-12T19:13:15.988Z,33.67
2023-02-12T19:15:42.665Z,32.15
2023-02-12T19:18:09.134Z,32.15
2023-02-12T19:20:39.244Z,31.98
2023-02-12T19:23:05.741Z,33.03
2023-02-12T19:25:35.456Z,30.02
2023-02-12T19:28:01.919Z,29.60
2023-02-12T19:30:28.377Z,31.17
2023-02-12T19:32:54.850Z,30.15
2023-02-12T19:35:21.395Z,30.02
2023-02-12T19:37:47.883Z,27.63
2023-02-12T19:40:14.522Z,29.17
2023-02-12T19:42:41.044Z,29.23
2023-02-12T19:45:07.990Z,28.85
2023-02-12T19:47:34.530Z,33.38
2023-02-12T19:50:01.060Z,32.72
2023-02-12T19:52:27.562Z,34.28
2023-02-12T19:54:54.187Z,30.75
2023-02-12T19:57:20.722Z,43.20
2023-02-12T19:59:47.485Z,31.52
2023-02-12T20:02:13.977Z,29.15
2023-02-12T20:04:40.584Z,28.35
2023-02-12T20:07:08.282Z,29.67
2023-02-12T20:09:35.652Z,30.80
2023-02-12T20:12:02.615Z,31.08
2023-02-12T20:14:29.275Z,24.52
2023-02-12T20:16:57.342Z,30.38
2023-02-12T20:19:33.165Z,28.08
2023-02-12T20:22:01.640Z,27.63
2023-02-12T20:24:30.716Z,28.60
2023-02-12T20:26:59.232Z,30.10
2023-02-12T20:29:25.929Z,27.52
2023-02-12T20:31:52.830Z,25.85
2023-02-12T20:34:20.578Z,27.88
2023-02-12T20:36:47.453Z,23.80
2023-02-12T20:39:16.663Z,25.60
2023-02-12T20:41:43.564Z,26.08
2023-02-12T20:44:14.189Z,24.42
2023-02-12T20:46:42.227Z,25.05
2023-02-12T20:49:10.645Z,23.63
2023-02-12T20:51:37.166Z,23.00
2023-02-12T20:54:04.046Z,20.60
2023-02-12T20:56:33.477Z,22.13
2023-02-12T20:59:00.878Z,22.90
2023-02-12T21:01:32.821Z,25.20
2023-02-12T21:04:09.137Z,23.10
2023-02-12T21:06:37.012Z,24.50
2023-02-12T21:09:03.914Z,23.50
2023-02-12T21:11:30.424Z,22.73
2023-02-12T21:14:12.456Z,22.33
2023-02-12T21:16:45.619Z,24.50
2023-02-12T21:19:14.164Z,22.67
2023-02-12T21:21:42.307Z,19.63
2023-02-12T21:24:12.949Z,22.58
2023-02-12T21:26:39.521Z,24.55
2023-02-12T21:29:06.229Z,23.92
2023-02-12T21:31:35.259Z,22.92
2023-02-12T21:34:03.611Z,23.35
2023-02-12T21:36:35.856Z,24.85
2023-02-12T21:39:04.280Z,25.75
2023-02-12T21:41:36.469Z,23.63
2023-02-12T21:44:11.056Z,25.13
2023-02-12T21:46:37.929Z,23.40
2023-02-12T21:49:05.503Z,20.95
2023-02-12T21:51:35.054Z,19.50
2023-02-12T21:54:04.536Z,23.65
2023-02-12T21:56:31.601Z,24.60
2023-02-12T21:58:59.202Z,23.90
2023-02-12T22:01:29.629Z,24.70
2023-02-12T22:03:56.114Z,24.20
2023-02-12T22:06:24.960Z,27.15
2023-02-12T22:08:52.947Z,24.00
2023-02-12T22:11:21.072Z,20.95
2023-02-12T22:13:47.657Z,22.85
2023-02-12T22:16:17.923Z,24.40
2023-02-12T22:18:45.340Z,25.13
2023-02-12T22:21:13.825Z,24.17
2023-02-12T22:23:41.097Z,27.42
2023-02-12T22:26:28.210Z,25.60
2023-02-12T22:29:02.681Z,23.92
2023-02-12T22:31:31.947Z,25.60
2023-02-12T22:34:00.870Z,27.23
2023-02-12T22:36:27.926Z,26.00
2023-02-12T22:38:57.340Z,25.27
2023-02-12T22:41:24.138Z,25.30
2023-02-12T22:43:50.658Z,26.67
2023-02-12T22:46:17.270Z,21.85
2023-02-12T22:48:44.099Z,27.77
2023-02-12T22:51:20.035Z,25.02
2023-02-12T22:53:47.118Z,27.63
2023-02-12T22:56:13.881Z,28.63
2023-02-12T22:58:40.731Z,23.65
2023-02-12T23:01:12.858Z,25.80
2023-02-12T23:03:39.755Z,28.88
2023-02-12T23:06:10.193Z,26.20
2023-02-12T23:08:36.882Z,27.23
2023-02-12T23:11:04.691Z,24.48
2023-02-12T23:13:32.529Z,27.15
2023-02-12T23:15:59.085Z,26.02
2023-02-12T23:18:25.730Z,25.95
2023-02-12T23:20:53.252Z,26.13
2023-02-12T23:23:21.449Z,23.60
2023-02-12T23:25:48.579Z,22.48
2023-02-12T23:28:15.752Z,21.60
2023-02-12T23:30:43.116Z,22.48
2023-02-12T23:33:10.038Z,25.70
2023-02-12T23:35:36.534Z,21.85
2023-02-12T23:38:04.364Z,22.38
2023-02-12T23:40:32.892Z,21.85
2023-02-12T23:42:59.751Z,24.77
2023-02-12T23:45:27.105Z,20.65
2023-02-12T23:47:54.350Z,23.20
2023-02-12T23:50:20.979Z,21.58
2023-02-12T23:52:47.456Z,25.38
2023-02-12T23:55:14.224Z,22.77
2023-02-12T23:57:40.678Z,21.23
